Time;durP1;ratioP1;P1;durP2;ratioP2;P2;SDS_P1;SDS_P2;PMS_P1;PMS_P2;Temp;Humidity;BMP_temperature;BMP_pressure;BME280_temperature;BME280_humidity;BME280_pressure;Samples;Min_cycle;Max_cycle;Signal;HPM_P1;HPM_P2
2023/02/23 00:02:11;;;;;;;;;;;8.50;99.90;;;;;;4994722;28;19943;-77
2023/02/23 00:04:37;;;;;;;;;;;8.40;99.90;;;;;;4993298;28;19917;-78
2023/02/23 00:07:05;;;;;;;;;;;8.40;99.90;;;;;;4994148;28;19935;-75
2023/02/23 00:09:36;;;;;;;;;;;8.40;99.90;;;;;;4996147;28;20299;-79
2023/02/23 00:12:06;;;;;;;;;;;8.40;99.90;;;;;;4980258;28;19914;-76
2023/02/23 00:14:33;;;;;;;;;;;8.40;99.90;;;;;;4990238;28;19918;-80
2023/02/23 00:16:59;;;;;;;;;;;8.40;99.90;;;;;;4996072;28;20367;-78
2023/02/23 00:19:25;;;;;;;;;;;8.40;99.90;;;;;;4994010;28;20363;-77
2023/02/23 00:21:52;;;;;;;;;;;8.40;99.90;;;;;;4992961;28;19925;-75
2023/02/23 00:24:18;;;;;;;;;;;8.40;99.90;;;;;;4995345;28;19929;-77
2023/02/23 00:26:46;;;;;;;;;;;8.40;99.90;;;;;;4994703;28;20278;-77
2023/02/23 00:29:22;;;;;;;;;;;8.40;99.90;;;;;;4996133;28;19910;-78
2023/02/23 00:31:48;;;;;;;;;;;8.50;99.90;;;;;;4994701;28;19921;-77
2023/02/23 00:34:15;;;;;;;;;;;8.40;99.90;;;;;;4999573;28;19985;-77
2023/02/23 00:36:41;;;;;;;;;;;8.40;99.90;;;;;;4997010;28;19913;-77
2023/02/23 00:39:31;;;;;;;;;;;8.40;99.90;;;;;;5000856;28;19974;-77
2023/02/23 00:42:01;;;;;;;;;;;8.40;99.90;;;;;;4996352;28;19918;-77
2023/02/23 00:44:27;;;;;;;;;;;8.40;99.90;;;;;;4993188;28;20361;-77
2023/02/23 00:46:53;;;;;;;;;;;8.40;99.90;;;;;;4975571;28;20028;-77
2023/02/23 00:49:21;;;;;;;;;;;8.40;99.90;;;;;;4991876;28;20390;-77
2023/02/23 00:51:47;;;;;;;;;;;8.40;99.90;;;;;;5006331;28;19940;-77
2023/02/23 00:54:13;;;;;;;;;;;8.40;99.90;;;;;;4995948;28;20370;-77
2023/02/23 00:56:39;;;;;;;;;;;8.40;99.90;;;;;;4992886;28;19913;-77
2023/02/23 00:59:06;;;;;;;;;;;8.40;99.90;;;;;;4992759;28;19917;-77
2023/02/23 01:01:32;;;;;;;;;;;8.40;99.90;;;;;;4998390;28;20349;-77
2023/02/23 01:03:58;;;;;;;;;;;8.40;99.90;;;;;;5000197;28;19922;-77
2023/02/23 01:06:23;;;;;;;;;;;8.40;99.90;;;;;;4994428;28;19969;-77
2023/02/23 01:08:55;;;;;;;;;;;8.40;99.90;;;;;;4995084;28;19910;-78
2023/02/23 01:11:27;;;;;;;;;;;8.40;99.90;;;;;;4988788;28;20371;-77
2023/02/23 01:13:54;;;;;;;;;;;8.40;99.90;;;;;;4994679;28;19914;-78
2023/02/23 01:16:21;;;;;;;;;;;8.40;99.90;;;;;;4993534;28;19920;-76
2023/02/23 01:18:47;;;;;;;;;;;8.40;99.90;;;;;;4977649;28;19917;-77
2023/02/23 01:21:17;;;;;;;;;;;8.40;99.90;;;;;;4984189;28;19922;-77
2023/02/23 01:23:43;;;;;;;;;;;8.40;99.90;;;;;;4992838;28;20363;-76
2023/02/23 01:26:30;;;;;;;;;;;8.30;99.90;;;;;;4992912;28;19914;-77
2023/02/23 01:28:57;;;;;;;;;;;8.30;99.90;;;;;;4990572;28;19929;-76
2023/02/23 01:31:24;;;;;;;;;;;8.30;99.90;;;;;;4992819;28;20497;-77
2023/02/23 01:33:59;;;;;;;;;;;8.30;99.90;;;;;;4993607;28;20248;-78
2023/02/23 01:36:27;;;;;;;;;;;8.40;99.90;;;;;;4978821;28;19924;-77
2023/02/23 01:38:56;;;;;;;;;;;8.30;99.90;;;;;;4991400;28;19921;-77
2023/02/23 01:41:22;;;;;;;;;;;8.30;99.90;;;;;;4977382;28;19929;-76
2023/02/23 01:43:59;;;;;;;;;;;8.40;99.90;;;;;;4992772;28;20023;-77
2023/02/23 01:46:25;;;;;;;;;;;8.30;99.90;;;;;;4983696;28;20413;-76
2023/02/23 01:48:55;;;;;;;;;;;8.40;99.90;;;;;;4978570;28;19910;-77
2023/02/23 01:51:22;;;;;;;;;;;8.30;99.90;;;;;;4969379;28;19921;-77
2023/02/23 01:54:03;;;;;;;;;;;8.30;99.90;;;;;;4995857;28;19924;-77
2023/02/23 01:56:31;;;;;;;;;;;8.30;99.90;;;;;;4983597;28;20358;-77
2023/02/23 01:59:02;;;;;;;;;;;8.40;99.90;;;;;;4980642;28;19932;-76
2023/02/23 02:01:28;;;;;;;;;;;8.30;99.90;;;;;;4987375;28;19922;-77
2023/02/23 02:03:56;;;;;;;;;;;8.30;99.90;;;;;;4983287;28;19968;-77
2023/02/23 02:06:23;;;;;;;;;;;8.40;99.90;;;;;;4969257;28;19921;-77
2023/02/23 02:08:53;;;;;;;;;;;8.40;99.90;;;;;;4994460;28;20283;-77
2023/02/23 02:11:29;;;;;;;;;;;8.40;99.90;;;;;;4996182;28;19914;-77
2023/02/23 02:14:01;;;;;;;;;;;8.40;99.90;;;;;;4998061;28;19914;-76
2023/02/23 02:16:45;;;;;;;;;;;8.40;99.90;;;;;;5000581;28;19917;-76
2023/02/23 02:19:17;;;;;;;;;;;8.40;99.90;;;;;;4991734;28;19920;-76
2023/02/23 02:21:55;;;;;;;;;;;8.40;99.90;;;;;;4993982;28;19918;-77
2023/02/23 02:24:27;;;;;;;;;;;8.40;99.90;;;;;;4999868;28;20283;-76
2023/02/23 02:27:05;;;;;;;;;;;8.40;99.90;;;;;;4980065;28;19921;-77
2023/02/23 02:29:54;;;;;;;;;;;8.50;99.90;;;;;;4994962;28;20271;-76
2023/02/23 02:32:20;;;;;;;;;;;8.40;99.90;;;;;;4970313;28;19925;-76
2023/02/23 02:35:13;;;;;;;;;;;8.50;99.90;;;;;;4985246;28;20260;-77
2023/02/23 02:37:39;;;;;;;;;;;8.50;99.90;;;;;;4968797;28;19921;-79
2023/02/23 02:40:16;;;;;;;;;;;8.50;99.90;;;;;;4993655;28;19961;-77
2023/02/23 02:42:59;;;;;;;;;;;8.50;99.90;;;;;;4995559;28;20256;-79
2023/02/23 02:45:26;;;;;;;;;;;8.50;99.90;;;;;;4965404;28;20392;-78
2023/02/23 02:48:15;;;;;;;;;;;8.50;99.90;;;;;;4998667;28;20278;-78
2023/02/23 02:50:49;;;;;;;;;;;8.50;99.90;;;;;;4984189;28;20282;-79
2023/02/23 02:53:36;;;;;;;;;;;8.50;99.90;;;;;;4985746;28;19914;-78
2023/02/23 02:56:04;;;;;;;;;;;8.50;99.90;;;;;;4993848;28;19917;-77
2023/02/23 02:58:34;;;;;;;;;;;8.50;99.90;;;;;;4981820;28;19914;-77
2023/02/23 04:17:33;;;;;;;;;;;8.50;99.90;;;;;;4998396;28;19913;-77
2023/02/23 04:19:59;;;;;;;;;;;8.50;99.90;;;;;;4992058;28;20346;-77
2023/02/23 04:22:25;;;;;;;;;;;8.50;99.90;;;;;;4993944;28;20009;-77
2023/02/23 04:24:51;;;;;;;;;;;8.60;99.90;;;;;;4993174;28;20382;-78
2023/02/23 04:27:17;;;;;;;;;;;8.60;99.90;;;;;;4992592;28;19917;-77
2023/02/23 04:29:43;;;;;;;;;;;8.60;99.90;;;;;;4992915;28;20397;-77
2023/02/23 04:32:11;;;;;;;;;;;8.60;99.90;;;;;;4992775;28;19933;-77
2023/02/23 04:34:37;;;;;;;;;;;8.60;99.90;;;;;;4992952;28;19924;-78
2023/02/23 04:37:03;;;;;;;;;;;8.60;99.90;;;;;;4993153;28;19918;-77
2023/02/23 04:39:29;;;;;;;;;;;8.60;99.90;;;;;;4992226;28;19914;-78
2023/02/23 04:41:55;;;;;;;;;;;8.60;99.90;;;;;;4999140;28;19917;-77
2023/02/23 04:44:21;;;;;;;;;;;8.60;99.90;;;;;;4995791;28;19913;-77
2023/02/23 04:46:47;;;;;;;;;;;8.60;99.90;;;;;;4987449;28;20406;-79
2023/02/23 04:49:13;;;;;;;;;;;8.70;99.90;;;;;;4994033;28;19913;-77
2023/02/23 04:51:39;;;;;;;;;;;8.60;99.90;;;;;;4975944;28;19910;-77
2023/02/23 04:54:05;;;;;;;;;;;8.60;99.90;;;;;;4993668;28;19924;-76
2023/02/23 04:56:31;;;;;;;;;;;8.60;99.90;;;;;;4993083;28;19953;-78
2023/02/23 04:58:57;;;;;;;;;;;8.60;99.90;;;;;;4992320;28;19997;-77
2023/02/23 05:01:23;;;;;;;;;;;8.60;99.90;;;;;;4990066;28;19922;-77
2023/02/23 05:03:49;;;;;;;;;;;8.60;99.90;;;;;;4992474;28;20370;-79
2023/02/23 05:06:16;;;;;;;;;;;8.60;99.90;;;;;;4992742;28;20004;-77
2023/02/23 05:08:42;;;;;;;;;;;8.60;99.90;;;;;;4992815;28;19914;-77
2023/02/23 05:11:08;;;;;;;;;;;8.60;99.90;;;;;;4990819;28;19937;-77
2023/02/23 05:13:34;;;;;;;;;;;8.60;99.90;;;;;;4993082;28;19920;-77
2023/02/23 05:16:00;;;;;;;;;;;8.60;99.90;;;;;;4989251;28;19914;-77
2023/02/23 05:18:26;;;;;;;;;;;8.60;99.90;;;;;;4999317;28;19914;-77
2023/02/23 05:20:52;;;;;;;;;;;8.60;99.90;;;;;;4988700;28;19921;-77
2023/02/23 05:23:18;;;;;;;;;;;8.60;99.90;;;;;;4996108;28;19910;-77
2023/02/23 05:25:44;;;;;;;;;;;8.60;99.90;;;;;;4992571;28;19921;-77
2023/02/23 05:28:10;;;;;;;;;;;8.70;99.90;;;;;;4990818;28;19997;-77
2023/02/23 05:30:36;;;;;;;;;;;8.70;99.90;;;;;;4974598;28;19960;-77
2023/02/23 05:33:02;;;;;;;;;;;8.70;99.90;;;;;;4992253;28;19918;-76
2023/02/23 05:35:28;;;;;;;;;;;8.70;99.90;;;;;;4992593;28;20285;-76
2023/02/23 05:37:54;;;;;;;;;;;8.70;99.90;;;;;;4992107;28;19913;-78
2023/02/23 05:40:20;;;;;;;;;;;8.70;99.90;;;;;;4991668;28;19914;-77
2023/02/23 05:42:46;;;;;;;;;;;8.70;99.90;;;;;;4976234;28;19914;-77
2023/02/23 05:45:13;;;;;;;;;;;8.70;99.90;;;;;;4991911;28;19917;-77
2023/02/23 05:47:39;;;;;;;;;;;8.70;99.90;;;;;;4992727;28;19910;-76
2023/02/23 05:50:06;;;;;;;;;;;8.70;99.90;;;;;;4990279;28;20375;-76
2023/02/23 05:52:35;;;;;;;;;;;8.70;99.90;;;;;;4992492;28;20371;-77
2023/02/23 05:55:02;;;;;;;;;;;8.80;99.90;;;;;;4994697;28;19921;-77
2023/02/23 05:57:27;;;;;;;;;;;8.70;99.90;;;;;;4992432;28;19914;-77
2023/02/23 05:59:53;;;;;;;;;;;8.70;99.90;;;;;;4990128;28;20463;-78
2023/02/23 06:02:19;;;;;;;;;;;8.70;99.90;;;;;;5008617;28;20004;-77
2023/02/23 06:04:45;;;;;;;;;;;8.80;99.90;;;;;;4996298;28;19964;-76
2023/02/23 06:07:11;;;;;;;;;;;8.70;99.90;;;;;;4980022;28;19990;-77
2023/02/23 06:09:37;;;;;;;;;;;8.70;99.90;;;;;;4994879;28;19973;-77
2023/02/23 06:12:04;;;;;;;;;;;8.70;99.90;;;;;;4995165;28;19913;-77
2023/02/23 06:14:31;;;;;;;;;;;8.70;99.90;;;;;;4992626;28;19914;-77
2023/02/23 06:16:57;;;;;;;;;;;8.70;99.90;;;;;;4991402;28;19918;-77
2023/02/23 06:19:23;;;;;;;;;;;8.70;99.90;;;;;;4991762;28;20371;-77
2023/02/23 06:21:49;;;;;;;;;;;8.70;99.90;;;;;;4991759;28;19957;-76
2023/02/23 06:24:15;;;;;;;;;;;8.60;99.90;;;;;;4994852;28;19960;-77
2023/02/23 06:26:41;;;;;;;;;;;8.70;99.90;;;;;;4995716;28;19914;-76
2023/02/23 06:29:07;;;;;;;;;;;8.70;99.90;;;;;;4990234;28;19921;-77
2023/02/23 06:31:33;;;;;;;;;;;8.70;99.90;;;;;;4982511;28;19910;-76
2023/02/23 06:33:58;;;;;;;;;;;8.70;99.90;;;;;;4995919;28;19957;-77
2023/02/23 06:36:24;;;;;;;;;;;8.70;99.90;;;;;;4981874;28;19960;-77
2023/02/23 06:38:54;;;;;;;;;;;8.70;99.90;;;;;;4999278;28;19921;-76
2023/02/23 06:41:20;;;;;;;;;;;8.70;99.90;;;;;;5000984;28;19922;-76
2023/02/23 06:43:46;;;;;;;;;;;8.70;99.90;;;;;;4996040;28;19988;-77
2023/02/23 06:46:12;;;;;;;;;;;8.80;99.90;;;;;;4994659;28;19980;-77
2023/02/23 06:48:38;;;;;;;;;;;8.70;99.90;;;;;;4995257;28;19914;-76
2023/02/23 06:51:04;;;;;;;;;;;8.80;99.90;;;;;;4996929;28;19914;-77
2023/02/23 06:53:30;;;;;;;;;;;8.80;99.90;;;;;;4995240;28;19921;-77
2023/02/23 06:55:56;;;;;;;;;;;8.80;99.90;;;;;;5001577;28;19917;-78
2023/02/23 06:58:22;;;;;;;;;;;8.80;99.90;;;;;;4997893;28;19913;-77
2023/02/23 07:00:48;;;;;;;;;;;8.80;99.90;;;;;;4983562;28;19926;-77
2023/02/23 07:03:14;;;;;;;;;;;8.90;99.90;;;;;;4978125;28;19913;-77
2023/02/23 07:05:40;;;;;;;;;;;8.80;99.90;;;;;;4995298;28;19957;-77
2023/02/23 07:08:06;;;;;;;;;;;8.90;99.90;;;;;;4996090;28;20005;-78
2023/02/23 07:10:32;;;;;;;;;;;8.90;99.90;;;;;;4993816;28;19914;-77
2023/02/23 07:12:59;;;;;;;;;;;8.90;99.90;;;;;;4994599;28;19929;-77
2023/02/23 07:15:25;;;;;;;;;;;8.90;99.90;;;;;;4995229;28;19925;-77
2023/02/23 07:17:51;;;;;;;;;;;8.90;99.90;;;;;;5003016;28;20359;-79
2023/02/23 07:20:18;;;;;;;;;;;9.00;99.90;;;;;;4994545;28;20386;-76
2023/02/23 07:22:44;;;;;;;;;;;9.00;99.90;;;;;;5000105;28;19922;-76
2023/02/23 07:25:10;;;;;;;;;;;9.00;99.90;;;;;;4996376;28;19972;-74
2023/02/23 07:27:36;;;;;;;;;;;9.00;99.90;;;;;;4995556;28;19982;-75
2023/02/23 07:30:03;;;;;;;;;;;9.10;99.90;;;;;;4993019;28;19914;-75
2023/02/23 07:32:29;;;;;;;;;;;9.10;99.90;;;;;;4994951;28;20275;-75
2023/02/23 07:34:55;;;;;;;;;;;9.20;99.90;;;;;;4994157;28;19917;-75
2023/02/23 07:37:21;;;;;;;;;;;9.20;99.90;;;;;;4998377;28;20389;-76
2023/02/23 07:39:47;;;;;;;;;;;9.30;99.90;;;;;;4987651;28;19918;-75
2023/02/23 07:42:13;;;;;;;;;;;9.30;99.90;;;;;;4997550;28;19925;-76
2023/02/23 07:44:39;;;;;;;;;;;9.30;99.90;;;;;;4991722;28;19964;-75
2023/02/23 07:47:05;;;;;;;;;;;9.30;99.90;;;;;;4994548;28;19921;-75
2023/02/23 07:49:32;;;;;;;;;;;9.40;99.90;;;;;;4993847;28;19914;-74
2023/02/23 07:51:58;;;;;;;;;;;9.40;99.90;;;;;;4994024;28;19929;-75
2023/02/23 07:54:24;;;;;;;;;;;9.40;99.90;;;;;;4986035;28;20008;-75
2023/02/23 07:56:51;;;;;;;;;;;9.50;99.90;;;;;;4994514;28;19914;-76
2023/02/23 07:59:17;;;;;;;;;;;9.40;99.90;;;;;;4993321;28;19910;-76
2023/02/23 08:01:43;;;;;;;;;;;9.40;99.90;;;;;;4995528;28;19929;-75
2023/02/23 08:04:09;;;;;;;;;;;9.50;99.90;;;;;;4993323;28;19918;-75
2023/02/23 08:06:35;;;;;;;;;;;9.50;99.90;;;;;;4996145;28;19914;-75
2023/02/23 08:09:02;;;;;;;;;;;9.60;99.90;;;;;;4998406;28;20430;-75
2023/02/23 08:11:28;;;;;;;;;;;9.60;99.90;;;;;;4978340;28;19921;-75
2023/02/23 08:13:58;;;;;;;;;;;9.60;99.90;;;;;;4992121;28;19910;-75
2023/02/23 08:16:26;;;;;;;;;;;9.70;99.90;;;;;;5003093;28;19921;-75
2023/02/23 08:18:52;;;;;;;;;;;9.80;99.90;;;;;;5009518;28;19921;-80
2023/02/23 08:21:18;;;;;;;;;;;9.90;99.90;;;;;;5007842;28;20015;-75
2023/02/23 08:23:44;;;;;;;;;;;10.10;99.90;;;;;;5007853;28;19913;-75
2023/02/23 08:26:10;;;;;;;;;;;10.30;99.90;;;;;;5007470;28;20012;-76
2023/02/23 08:28:36;;;;;;;;;;;10.40;99.90;;;;;;5007006;28;19920;-76
2023/02/23 08:31:02;;;;;;;;;;;10.30;99.90;;;;;;5008677;28;19918;-75
2023/02/23 08:33:30;;;;;;;;;;;10.40;98.40;;;;;;5005835;28;20441;-75
2023/02/23 08:35:58;;;;;;;;;;;10.40;83.20;;;;;;5007031;28;19922;-75
2023/02/23 08:38:24;;;;;;;;;;;10.40;67.10;;;;;;5007457;28;20278;-75
2023/02/23 08:40:50;;;;;;;;;;;10.30;57.70;;;;;;5007239;28;20013;-75
2023/02/23 08:43:16;;;;;;;;;;;10.30;53.40;;;;;;5005478;28;20315;-74
2023/02/23 08:45:42;;;;;;;;;;;10.30;48.00;;;;;;5005715;28;20003;-75
2023/02/23 08:48:08;;;;;;;;;;;10.40;46.80;;;;;;5008649;28;20004;-74
2023/02/23 08:50:34;;;;;;;;;;;10.40;38.90;;;;;;5005915;28;19914;-77
2023/02/23 08:53:00;;;;;;;;;;;10.40;36.60;;;;;;4984643;28;19917;-74
2023/02/23 08:55:26;;;;;;;;;;;10.30;30.40;;;;;;4993843;28;19910;-74
2023/02/23 08:57:52;;;;;;;;;;;10.40;28.20;;;;;;4993083;28;19914;-74
2023/02/23 09:00:18;;;;;;;;;;;10.40;22.50;;;;;;4997035;28;20351;-73
2023/02/23 09:02:46;;;;;;;;;;;10.50;26.20;;;;;;4992289;28;19925;-74
2023/02/23 09:05:12;;;;;;;;;;;10.60;29.80;;;;;;4996781;28;19914;-74
2023/02/23 09:07:39;;;;;;;;;;;10.70;25.10;;;;;;4994491;28;19921;-75
2023/02/23 09:10:05;;;;;;;;;;;10.80;16.30;;;;;;4986497;28;20001;-74
2023/02/23 09:12:31;;;;;;;;;;;10.80;11.20;;;;;;4993332;28;19914;-74
2023/02/23 09:14:57;;;;;;;;;;;10.90;3.90;;;;;;4991776;28;19980;-74
2023/02/23 09:17:23;;;;;;;;;;;10.90;1.00;;;;;;4993283;28;19917;-73
2023/02/23 09:19:49;;;;;;;;;;;10.80;1.00;;;;;;4993143;28;19990;-74
2023/02/23 09:22:17;;;;;;;;;;;10.80;1.00;;;;;;4992333;28;19922;-72
2023/02/23 09:24:43;;;;;;;;;;;10.90;1.00;;;;;;4977921;28;19940;-73
2023/02/23 09:27:11;;;;;;;;;;;11.00;1.00;;;;;;4996144;28;20367;-73
2023/02/23 09:29:41;;;;;;;;;;;11.00;1.00;;;;;;4994478;28;19925;-73
2023/02/23 09:32:07;;;;;;;;;;;11.10;1.00;;;;;;4996438;28;19917;-73
2023/02/23 09:34:33;;;;;;;;;;;11.20;1.00;;;;;;4990443;28;19917;-74
2023/02/23 09:37:01;;;;;;;;;;;11.20;1.00;;;;;;4995993;28;19960;-73
2023/02/23 09:39:27;;;;;;;;;;;11.20;1.00;;;;;;4997870;28;19918;-73
2023/02/23 09:41:54;;;;;;;;;;;11.20;1.00;;;;;;4977077;28;20385;-74
2023/02/23 09:44:25;;;;;;;;;;;11.30;1.00;;;;;;4993457;28;19921;-74
2023/02/23 09:47:06;;;;;;;;;;;11.20;1.00;;;;;;4994696;28;19914;-72
2023/02/23 09:49:34;;;;;;;;;;;11.30;1.00;;;;;;4996368;28;19914;-72
2023/02/23 09:52:00;;;;;;;;;;;11.30;1.00;;;;;;4985914;28;19921;-73
2023/02/23 09:54:29;;;;;;;;;;;11.50;1.00;;;;;;4977439;28;19910;-73
2023/02/23 09:56:57;;;;;;;;;;;11.50;1.00;;;;;;4992319;28;19929;-77
2023/02/23 09:59:24;;;;;;;;;;;11.60;1.00;;;;;;4992632;28;19914;-73
2023/02/23 10:01:50;;;;;;;;;;;11.60;1.00;;;;;;4992959;28;19929;-73
2023/02/23 10:04:25;;;;;;;;;;;11.70;1.00;;;;;;4974303;28;19918;-75
2023/02/23 10:07:16;;;;;;;;;;;11.70;1.00;;;;;;4991337;28;20681;-73
2023/02/23 10:09:51;;;;;;;;;;;11.90;1.00;;;;;;4985938;28;19914;-74
2023/02/23 10:12:20;;;;;;;;;;;12.00;1.00;;;;;;4996655;28;19914;-73
2023/02/23 10:14:55;;;;;;;;;;;12.10;1.00;;;;;;4996230;28;19914;-74
2023/02/23 10:17:32;;;;;;;;;;;12.20;1.00;;;;;;4995039;28;19914;-78
2023/02/23 10:20:17;;;;;;;;;;;12.50;1.00;;;;;;4999832;28;20282;-76
2023/02/23 10:22:43;;;;;;;;;;;12.60;1.00;;;;;;4996493;28;19917;-77
2023/02/23 10:25:13;;;;;;;;;;;12.50;1.00;;;;;;4999516;28;20024;-77
2023/02/23 10:27:40;;;;;;;;;;;12.50;1.00;;;;;;4996847;28;19917;-78
2023/02/23 10:30:29;;;;;;;;;;;12.50;1.00;;;;;;4982005;28;19921;-78
2023/02/23 10:32:58;;;;;;;;;;;12.30;1.00;;;;;;4995526;28;19945;-79
2023/02/23 10:35:26;;;;;;;;;;;12.20;1.00;;;;;;4996576;28;19910;-77
2023/02/23 10:37:53;;;;;;;;;;;12.10;1.00;;;;;;4993219;28;19921;-77
2023/02/23 10:40:21;;;;;;;;;;;12.00;1.00;;;;;;5001317;28;20304;-79
2023/02/23 10:42:48;;;;;;;;;;;12.00;1.00;;;;;;4996460;28;19917;-77
2023/02/23 10:45:21;;;;;;;;;;;12.00;1.00;;;;;;4998976;28;19925;-77
2023/02/23 10:47:53;;;;;;;;;;;12.00;1.00;;;;;;4998113;28;20308;-77
2023/02/23 10:50:21;;;;;;;;;;;12.00;1.00;;;;;;4999442;28;19921;-76
2023/02/23 10:52:49;;;;;;;;;;;12.30;1.00;;;;;;4995706;28;19913;-74
2023/02/23 10:55:24;;;;;;;;;;;12.50;1.00;;;;;;4995144;28;19918;-75
2023/02/23 10:57:59;;;;;;;;;;;12.40;1.00;;;;;;4994081;28;19920;-74
2023/02/23 11:00:29;;;;;;;;;;;12.50;1.00;;;;;;4998749;28;19922;-75
2023/02/23 11:02:57;;;;;;;;;;;12.40;1.00;;;;;;4995807;28;19926;-77
2023/02/23 11:05:26;;;;;;;;;;;12.40;1.00;;;;;;4998745;28;20266;-74
2023/02/23 11:08:07;;;;;;;;;;;12.60;1.00;;;;;;4994058;28;19914;-76
2023/02/23 11:10:33;;;;;;;;;;;12.70;99.90;;;;;;4996741;28;19920;-76
2023/02/23 11:12:59;;;;;;;;;;;12.80;1.00;;;;;;4998304;28;19932;-76
2023/02/23 11:15:27;;;;;;;;;;;13.00;1.00;;;;;;4995550;28;19921;-74
2023/02/23 11:17:57;;;;;;;;;;;13.00;99.90;;;;;;4980947;28;20410;-75
2023/02/23 11:20:27;;;;;;;;;;;13.00;99.90;;;;;;4995257;28;19921;-76
2023/02/23 11:22:55;;;;;;;;;;;13.00;99.90;;;;;;4994707;28;20283;-75
2023/02/23 11:25:26;;;;;;;;;;;12.90;99.90;;;;;;4994812;28;19918;-75
2023/02/23 11:27:55;;;;;;;;;;;12.90;99.90;;;;;;4996100;28;19940;-76
2023/02/23 11:30:24;;;;;;;;;;;12.70;99.90;;;;;;4994797;28;19913;-76
2023/02/23 11:32:51;;;;;;;;;;;12.80;99.90;;;;;;4994356;28;19918;-76
2023/02/23 11:35:17;;;;;;;;;;;12.80;99.90;;;;;;4993067;28;19917;-77
2023/02/23 11:37:43;;;;;;;;;;;12.80;99.90;;;;;;4992995;28;20401;-76
2023/02/23 11:40:21;;;;;;;;;;;12.80;99.90;;;;;;4994622;28;19917;-76
2023/02/23 11:42:52;;;;;;;;;;;12.80;99.90;;;;;;4994338;28;19922;-75
2023/02/23 11:45:19;;;;;;;;;;;12.70;99.90;;;;;;4993784;28;20472;-75
2023/02/23 11:47:47;;;;;;;;;;;12.80;99.90;;;;;;4995521;28;19915;-75
2023/02/23 11:50:34;;;;;;;;;;;12.80;99.90;;;;;;4998146;28;19914;-76
2023/02/23 11:53:00;;;;;;;;;;;13.00;99.90;;;;;;4995462;28;20283;-75
2023/02/23 11:55:27;;;;;;;;;;;13.40;99.90;;;;;;4976979;28;19917;-75
2023/02/23 11:58:07;;;;;;;;;;;13.40;99.90;;;;;;4994767;28;20404;-76
2023/02/23 12:00:33;;;;;;;;;;;13.30;99.90;;;;;;4997992;28;19926;-77
2023/02/23 12:03:00;;;;;;;;;;;13.40;99.90;;;;;;4978668;28;19922;-76
2023/02/23 12:05:28;;;;;;;;;;;13.50;99.90;;;;;;4993787;28;19918;-77
2023/02/23 12:08:10;;;;;;;;;;;13.50;99.90;;;;;;4994346;28;20359;-77
2023/02/23 12:10:37;;;;;;;;;;;13.60;99.90;;;;;;4981649;28;19921;-76
2023/02/23 12:13:10;;;;;;;;;;;14.00;99.90;;;;;;4993784;28;19914;-77
2023/02/23 12:15:41;;;;;;;;;;;14.30;99.90;;;;;;4996815;28;19925;-77
2023/02/23 12:18:30;;;;;;;;;;;14.60;99.90;;;;;;4995642;28;19914;-77
2023/02/23 12:20:59;;;;;;;;;;;14.50;99.90;;;;;;4963968;28;19913;-74
2023/02/23 12:23:28;;;;;;;;;;;14.70;99.90;;;;;;4995115;28;19925;-77
2023/02/23 12:26:07;;;;;;;;;;;14.50;99.90;;;;;;4993972;28;19925;-77
2023/02/23 12:28:36;;;;;;;;;;;14.30;99.90;;;;;;4993790;28;20399;-77
2023/02/23 12:31:12;;;;;;;;;;;14.10;99.90;;;;;;4993284;28;19910;-77
2023/02/23 12:33:41;;;;;;;;;;;13.90;99.90;;;;;;4992325;28;19922;-76
2023/02/23 12:36:28;;;;;;;;;;;13.80;99.90;;;;;;4993486;28;19914;-76
2023/02/23 12:38:57;;;;;;;;;;;13.80;99.90;;;;;;4979468;28;19921;-76
2023/02/23 12:41:35;;;;;;;;;;;13.60;99.90;;;;;;4997131;28;20350;-76
2023/02/23 12:44:20;;;;;;;;;;;13.50;99.90;;;;;;4982759;28;19922;-77
2023/02/23 12:46:47;;;;;;;;;;;13.50;99.90;;;;;;4997014;28;20284;-76
2023/02/23 12:49:33;;;;;;;;;;;13.40;99.90;;;;;;4992948;28;19921;-76
2023/02/23 12:52:07;;;;;;;;;;;13.50;99.90;;;;;;4993000;28;19920;-77
2023/02/23 12:54:34;;;;;;;;;;;13.30;99.90;;;;;;4990376;28;20264;-75
2023/02/23 12:57:23;;;;;;;;;;;13.10;99.90;;;;;;4985358;28;19909;-77
2023/02/23 12:59:52;;;;;;;;;;;13.20;99.90;;;;;;4987372;28;19921;-75
2023/02/23 13:02:37;;;;;;;;;;;13.10;99.90;;;;;;4995806;28;19933;-75
2023/02/23 13:05:14;;;;;;;;;;;13.10;99.90;;;;;;5002428;28;19914;-77
2023/02/23 13:07:40;;;;;;;;;;;13.20;99.90;;;;;;4995246;28;19932;-74
2023/02/23 13:10:09;;;;;;;;;;;13.30;99.90;;;;;;4996765;28;20278;-74
2023/02/23 13:12:35;;;;;;;;;;;13.50;99.90;;;;;;4992877;28;19920;-74
2023/02/23 13:15:04;;;;;;;;;;;13.60;99.90;;;;;;4990976;28;19957;-74
2023/02/23 13:17:30;;;;;;;;;;;13.70;99.90;;;;;;4992757;28;20404;-74
2023/02/23 13:20:11;;;;;;;;;;;13.50;99.90;;;;;;4993066;28;19909;-75
2023/02/23 13:22:46;;;;;;;;;;;13.40;99.90;;;;;;4996646;28;19933;-75
2023/02/23 13:25:22;;;;;;;;;;;13.40;99.90;;;;;;4991183;28;19929;-75
2023/02/23 13:27:51;;;;;;;;;;;13.40;99.90;;;;;;4994363;28;20278;-76
2023/02/23 13:30:19;;;;;;;;;;;13.50;99.90;;;;;;4996230;28;19928;-77
2023/02/23 13:32:45;;;;;;;;;;;13.50;99.90;;;;;;4992889;28;20371;-77
2023/02/23 13:35:20;;;;;;;;;;;13.60;99.90;;;;;;4994255;28;19925;-77
2023/02/23 13:37:54;;;;;;;;;;;13.60;99.90;;;;;;4993728;28;19923;-77
2023/02/23 13:40:39;;;;;;;;;;;13.80;99.90;;;;;;4997486;28;19936;-76
2023/02/23 13:43:08;;;;;;;;;;;13.70;99.90;;;;;;4995407;28;19922;-75
2023/02/23 13:45:37;;;;;;;;;;;13.80;99.90;;;;;;4991394;28;19921;-74
2023/02/23 13:48:15;;;;;;;;;;;13.60;99.90;;;;;;5000173;28;19914;-75
2023/02/23 13:51:00;;;;;;;;;;;13.60;99.90;;;;;;4996693;28;19920;-76
2023/02/23 13:53:31;;;;;;;;;;;13.50;99.90;;;;;;4996547;28;19914;-76
2023/02/23 13:55:59;;;;;;;;;;;13.50;99.90;;;;;;4995464;28;19941;-76
2023/02/23 13:58:27;;;;;;;;;;;13.60;99.90;;;;;;4998396;28;19921;-76
2023/02/23 14:01:02;;;;;;;;;;;13.80;99.90;;;;;;4996676;28;19922;-76
2023/02/23 14:03:29;;;;;;;;;;;13.90;99.90;;;;;;5000139;28;19929;-76
2023/02/23 14:05:58;;;;;;;;;;;13.80;99.90;;;;;;4999269;28;19918;-75
2023/02/23 14:08:33;;;;;;;;;;;13.80;99.90;;;;;;5002014;28;19914;-75
2023/02/23 14:10:59;;;;;;;;;;;13.60;99.90;;;;;;4999387;28;19921;-76
2023/02/23 14:13:32;;;;;;;;;;;13.40;99.90;;;;;;4995668;28;19910;-75
2023/02/23 14:16:11;;;;;;;;;;;13.40;99.90;;;;;;4994233;28;19921;-74
2023/02/23 14:18:52;;;;;;;;;;;13.40;99.90;;;;;;4997380;28;19914;-75
2023/02/23 14:21:26;;;;;;;;;;;13.40;99.90;;;;;;4995846;28;20274;-76
2023/02/23 14:24:02;;;;;;;;;;;13.40;99.90;;;;;;4978696;28;19937;-76
2023/02/23 14:26:28;;;;;;;;;;;13.30;99.90;;;;;;5000366;28;19925;-76
2023/02/23 14:29:09;;;;;;;;;;;13.40;99.90;;;;;;4996471;28;19914;-76
2023/02/23 14:31:36;;;;;;;;;;;13.40;99.90;;;;;;4996519;28;19921;-76
2023/02/23 14:34:11;;;;;;;;;;;13.40;99.90;;;;;;4999481;28;19921;-76
2023/02/23 14:36:42;;;;;;;;;;;13.40;99.90;;;;;;4997814;28;20314;-77
2023/02/23 14:39:27;;;;;;;;;;;13.40;99.90;;;;;;4997087;28;19994;-76
2023/02/23 14:41:54;;;;;;;;;;;13.40;99.90;;;;;;4999336;28;19925;-76
2023/02/23 14:44:26;;;;;;;;;;;13.30;99.90;;;;;;4995112;28;19914;-76
2023/02/23 14:47:10;;;;;;;;;;;13.30;99.90;;;;;;4994770;28;19925;-74
2023/02/23 14:49:47;;;;;;;;;;;13.20;99.90;;;;;;4995826;28;20390;-73
2023/02/23 14:52:24;;;;;;;;;;;13.20;99.90;;;;;;4998691;28;20298;-74
2023/02/23 14:54:51;;;;;;;;;;;13.20;99.90;;;;;;4995730;28;19918;-75
2023/02/23 14:57:21;;;;;;;;;;;13.10;99.90;;;;;;4998382;28;19917;-74
2023/02/23 14:59:56;;;;;;;;;;;13.10;99.90;;;;;;4998748;28;19918;-76
2023/02/23 15:02:23;;;;;;;;;;;13.10;99.90;;;;;;4999725;28;20025;-74
2023/02/23 15:04:49;;;;;;;;;;;13.10;99.90;;;;;;5008455;28;19917;-80
2023/02/23 15:07:24;;;;;;;;;;;13.20;99.90;;;;;;4984736;28;19914;-79
2023/02/23 15:09:51;;;;;;;;;;;13.20;99.90;;;;;;4980432;28;20366;-75
2023/02/23 15:12:25;;;;;;;;;;;13.20;99.90;;;;;;4994364;28;19924;-79
2023/02/23 15:14:53;;;;;;;;;;;13.10;99.90;;;;;;4978793;28;19914;-78
2023/02/23 15:17:20;;;;;;;;;;;13.10;99.90;;;;;;4994480;28;19913;-79
2023/02/23 15:19:47;;;;;;;;;;;13.10;99.90;;;;;;4994782;28;19935;-75
2023/02/23 15:22:25;;;;;;;;;;;13.10;99.90;;;;;;4994321;28;20409;-79
2023/02/23 15:24:54;;;;;;;;;;;13.10;99.90;;;;;;4973861;28;19918;-79
2023/02/23 15:27:25;;;;;;;;;;;13.00;99.90;;;;;;4997783;28;19914;-79
2023/02/23 15:29:51;;;;;;;;;;;13.10;99.90;;;;;;5007256;28;20392;-79
2023/02/23 15:32:19;;;;;;;;;;;13.10;99.90;;;;;;4999963;28;19944;-79
2023/02/23 15:34:45;;;;;;;;;;;13.10;99.90;;;;;;4998951;28;19921;-80
2023/02/23 15:37:18;;;;;;;;;;;13.10;99.90;;;;;;5003142;28;19917;-80
2023/02/23 15:40:02;;;;;;;;;;;13.10;99.90;;;;;;5004861;28;19913;-80
2023/02/23 15:42:34;;;;;;;;;;;13.10;99.90;;;;;;4975929;28;20388;-80
2023/02/23 15:45:01;;;;;;;;;;;13.10;99.90;;;;;;4989701;28;19913;-80
2023/02/23 15:47:31;;;;;;;;;;;13.20;99.90;;;;;;4994916;28;20256;-80
2023/02/23 15:50:00;;;;;;;;;;;13.10;99.90;;;;;;4978430;28;19925;-80
2023/02/23 15:52:26;;;;;;;;;;;13.10;99.90;;;;;;4993610;28;19914;-80
2023/02/23 15:54:58;;;;;;;;;;;13.00;99.90;;;;;;4996829;28;20363;-81
2023/02/23 15:57:32;;;;;;;;;;;13.00;99.90;;;;;;4981567;28;19921;-79